Time;durP1;ratioP1;P1;durP2;ratioP2;P2;SDS_P1;SDS_P2;PMS_P1;PMS_P2;Temp;Humidity;BMP_temperature;BMP_pressure;BME280_temperature;BME280_humidity;BME280_pressure;Samples;Min_cycle;Max_cycle;Signal;HPM_P1;HPM_P2
2024/02/06 05:39:42;;;;;;;3.90;1.30;;;;;;;1.02;99.66;99068.09;107658;1276;22545;-46
2024/02/06 05:42:10;;;;;;;5.50;1.30;;;;;;;1.01;99.62;99065.84;108567;1270;22531;-52
2024/02/06 05:44:38;;;;;;;3.30;1.60;;;;;;;1.01;99.81;99069.46;108173;1270;22390;-51
2024/02/06 05:47:07;;;;;;;6.30;1.90;;;;;;;1.02;99.69;99067.75;108272;1272;22532;-52
2024/02/06 05:49:35;;;;;;;7.00;2.20;;;;;;;1.03;99.63;99067.42;108078;1273;22532;-50
2024/02/06 05:52:03;;;;;;;7.60;2.60;;;;;;;1.05;99.59;99072.11;107944;1273;23279;-50
2024/02/06 05:54:31;;;;;;;7.00;2.60;;;;;;;1.07;99.53;99067.85;108215;1272;24200;-50
2024/02/06 05:56:58;;;;;;;7.00;2.50;;;;;;;1.10;99.41;99060.15;107623;1260;22553;-45
2024/02/06 05:59:27;;;;;;;5.90;2.30;;;;;;;1.13;99.31;99054.55;107930;1276;22695;-46
2024/02/06 06:01:55;;;;;;;9.10;2.60;;;;;;;1.15;99.01;99046.84;109037;1256;22398;-47
2024/02/06 06:04:24;;;;;;;8.80;2.90;;;;;;;1.17;99.07;99052.05;110107;1273;22404;-46
2024/02/06 06:06:57;;;;;;;7.40;1.90;;;;;;;1.21;99.10;99056.42;109928;1270;22565;-45
2024/02/06 06:09:25;;;;;;;11.30;2.40;;;;;;;1.25;98.90;99059.23;109409;1270;22414;-51
2024/02/06 06:11:53;;;;;;;6.00;1.60;;;;;;;1.28;98.65;99066.00;109981;1272;22613;-45
2024/02/06 06:14:21;;;;;;;6.10;1.60;;;;;;;1.33;98.67;99066.26;109933;1272;23165;-51
2024/02/06 06:16:48;;;;;;;4.40;1.90;;;;;;;1.38;98.60;99060.84;109616;1272;23030;-52
2024/02/06 06:19:17;;;;;;;3.70;1.60;;;;;;;1.42;98.61;99060.39;109583;1259;23101;-51
2024/02/06 06:21:47;;;;;;;4.10;1.80;;;;;;;1.46;98.79;99061.65;109094;1273;23663;-52
2024/02/06 06:24:15;;;;;;;5.20;1.70;;;;;;;1.49;99.10;99069.77;109750;1270;22475;-47
2024/02/06 06:27:07;;;;;;;6.10;2.00;;;;;;;1.53;99.37;99066.25;109490;1270;22527;-46
2024/02/06 06:31:05;;;;;;;4.10;1.60;;;;;;;1.58;99.92;99066.67;109006;1270;22372;-51
2024/02/06 06:41:12;;;;;;;9.10;2.00;;;;;;;1.72;100.00;99064.30;109560;1270;23376;-45
2024/02/06 06:43:49;;;;;;;6.20;2.40;;;;;;;1.76;100.00;99064.20;109439;1273;24158;-49
2024/02/06 06:46:17;;;;;;;3.30;1.40;;;;;;;1.81;100.00;99062.21;109921;1276;22381;-46
2024/02/06 06:48:47;;;;;;;7.80;1.70;;;;;;;1.85;100.00;99062.10;109440;1261;22574;-50
2024/02/06 06:51:18;;;;;;;9.10;2.60;;;;;;;1.88;100.00;99064.73;107700;1275;22516;-45
2024/02/06 06:53:46;;;;;;;5.40;1.70;;;;;;;1.89;100.00;99061.30;109208;1275;23112;-46
2024/02/06 06:56:18;;;;;;;2.50;1.30;;;;;;;1.91;100.00;99071.31;109206;1272;22568;-51
2024/02/06 06:58:49;;;;;;;5.60;1.70;;;;;;;1.93;100.00;99063.77;109419;1275;22390;-46
2024/02/06 07:01:17;;;;;;;6.40;1.50;;;;;;;1.94;100.00;99068.09;109673;1270;22445;-50
2024/02/06 07:03:56;;;;;;;9.60;1.90;;;;;;;1.94;100.00;99073.09;109363;1271;22599;-52
2024/02/06 07:06:43;;;;;;;16.20;2.00;;;;;;;1.95;100.00;99073.60;109135;1270;22558;-52
2024/02/06 07:09:16;;;;;;;7.90;1.80;;;;;;;1.95;100.00;99067.59;109362;1270;22469;-44
2024/02/06 07:11:48;;;;;;;5.00;1.60;;;;;;;1.99;100.00;99065.41;108903;1277;22360;-46
2024/02/06 07:14:17;;;;;;;9.40;1.60;;;;;;;2.01;100.00;99068.19;109289;1272;25446;-45
2024/02/06 07:16:45;;;;;;;8.10;1.70;;;;;;;2.03;100.00;99072.34;109345;1270;23131;-47
2024/02/06 07:19:59;;;;;;;7.30;1.60;;;;;;;2.05;100.00;99077.20;109248;1275;22645;-47
2024/02/06 07:22:47;;;;;;;6.80;1.40;;;;;;;2.07;100.00;99086.34;109096;1262;22524;-48
2024/02/06 07:29:58;;;;;;;3.60;1.40;;;;;;;2.08;100.00;99075.70;108915;1275;22536;-46
2024/02/06 07:37:25;;;;;;;6.90;1.40;;;;;;;2.07;100.00;99086.68;109306;1275;22353;-51
2024/02/06 07:40:32;;;;;;;3.00;1.40;;;;;;;2.06;100.00;99083.92;109569;1276;22523;-48
2024/02/06 07:43:06;;;;;;;6.20;1.90;;;;;;;2.03;100.00;99086.80;109623;1272;22389;-46
2024/02/06 07:45:33;;;;;;;7.80;2.10;;;;;;;2.01;100.00;99076.95;109721;1271;22183;-49
2024/02/06 07:48:01;;;;;;;6.10;1.80;;;;;;;2.01;100.00;99072.14;109775;1264;23739;-49
2024/02/06 07:50:29;;;;;;;4.90;1.30;;;;;;;2.03;100.00;99074.25;109763;1278;22492;-50
2024/02/06 07:52:56;;;;;;;4.40;1.30;;;;;;;2.08;100.00;99080.52;109780;1275;22299;-47
2024/02/06 07:55:24;;;;;;;3.50;1.60;;;;;;;2.14;100.00;99080.25;109551;1275;22494;-46
2024/02/06 07:57:52;;;;;;;8.50;1.70;;;;;;;2.20;100.00;99077.23;109740;1272;22293;-46
2024/02/06 08:00:20;;;;;;;9.00;2.50;;;;;;;2.26;100.00;99074.23;109753;1273;22385;-51
2024/02/06 08:02:48;;;;;;;9.10;2.60;;;;;;;2.29;100.00;99074.27;109902;1278;22396;-47
2024/02/06 08:05:16;;;;;;;10.70;3.10;;;;;;;2.30;100.00;99068.43;109917;1273;22453;-46
2024/02/06 08:07:43;;;;;;;13.90;3.50;;;;;;;2.32;100.00;99067.61;109653;1278;22389;-46
2024/02/06 08:10:11;;;;;;;11.10;5.10;;;;;;;2.38;100.00;99064.92;109738;1272;22902;-45
2024/02/06 08:12:42;;;;;;;24.90;12.90;;;;;;;2.44;100.00;99067.42;109043;1272;22311;-52
2024/02/06 08:15:21;;;;;;;20.70;10.10;;;;;;;2.52;100.00;99068.20;108942;1276;22554;-46
2024/02/06 08:17:56;;;;;;;20.70;7.10;;;;;;;2.58;100.00;99060.70;108772;1273;22585;-53
2024/02/06 08:20:24;;;;;;;6.30;2.80;;;;;;;2.60;100.00;99059.17;108722;1275;22583;-51
2024/02/06 08:22:52;;;;;;;9.30;2.90;;;;;;;2.60;100.00;99060.03;108871;1273;22545;-47
2024/02/06 08:25:22;;;;;;;11.20;2.70;;;;;;;2.61;100.00;99057.84;108928;1274;22205;-47
2024/02/06 08:27:57;;;;;;;6.40;2.10;;;;;;;2.64;100.00;99064.58;107989;1263;22542;-46
2024/02/06 08:30:39;;;;;;;10.10;2.60;;;;;;;2.68;100.00;99063.92;109742;1273;22686;-45
2024/02/06 08:33:07;;;;;;;10.70;2.20;;;;;;;2.69;100.00;99060.67;109209;1272;22616;-46
2024/02/06 08:35:39;;;;;;;6.40;2.00;;;;;;;2.71;100.00;99058.96;108511;1265;23313;-45
2024/02/06 08:38:17;;;;;;;3.50;1.40;;;;;;;2.70;100.00;99062.91;108226;1278;22512;-46
2024/02/06 08:40:51;;;;;;;4.40;1.90;;;;;;;2.61;100.00;99058.69;109636;1278;22411;-47
2024/02/06 08:43:19;;;;;;;8.00;2.70;;;;;;;2.53;100.00;99061.33;109355;1273;23343;-47
2024/02/06 08:45:51;;;;;;;7.90;2.40;;;;;;;2.48;100.00;99062.45;107520;1273;22528;-46
2024/02/06 08:48:19;;;;;;;7.30;2.20;;;;;;;2.41;100.00;99062.56;107602;1275;25223;-45
2024/02/06 08:50:49;;;;;;;3.20;2.00;;;;;;;2.34;100.00;99059.21;109469;1261;22542;-51
2024/02/06 08:53:36;;;;;;;5.30;1.90;;;;;;;2.37;100.00;99058.54;109287;1274;22244;-46
2024/02/06 08:56:07;;;;;;;5.30;2.60;;;;;;;2.41;100.00;99064.79;109171;1272;22672;-51
2024/02/06 08:58:36;;;;;;;4.00;1.90;;;;;;;2.45;100.00;99063.48;109394;1272;22324;-46
2024/02/06 09:01:04;;;;;;;9.30;2.70;;;;;;;2.48;100.00;99065.21;109269;1273;22841;-52
2024/02/06 09:12:41;;;;;;;8.10;2.10;;;;;;;2.68;100.00;99067.19;109863;1264;23595;-52
2024/02/06 09:24:42;;;;;;;3.30;1.90;;;;;;;2.81;100.00;99039.11;110052;1272;22278;-52
2024/02/06 09:36:38;;;;;;;4.10;2.30;;;;;;;3.14;100.00;99027.91;109467;1272;23493;-48
2024/02/06 09:39:25;;;;;;;5.40;2.80;;;;;;;3.23;100.00;99021.11;109168;1276;22598;-51
2024/02/06 09:42:12;;;;;;;4.50;2.30;;;;;;;3.31;100.00;99018.06;109301;1270;22512;-46
2024/02/06 09:45:46;;;;;;;4.60;2.30;;;;;;;3.33;100.00;99009.30;109857;1275;22984;-46
2024/02/06 09:48:38;;;;;;;4.30;2.60;;;;;;;3.33;100.00;99004.82;110067;1272;22202;-51
2024/02/06 09:51:27;;;;;;;4.60;2.50;;;;;;;3.39;100.00;98999.35;109531;1272;22548;-50
2024/02/06 09:54:06;;;;;;;3.70;2.10;;;;;;;3.45;100.00;99004.39;109608;1272;22408;-48
2024/02/06 09:56:38;;;;;;;3.90;2.20;;;;;;;3.50;100.00;99003.41;108911;1270;23189;-52
2024/02/06 10:03:44;;;;;;;6.50;2.40;;;;;;;3.40;100.00;98998.15;109218;1272;22394;-45
2024/02/06 10:06:27;;;;;;;7.30;3.30;;;;;;;3.33;100.00;98996.88;109087;1277;22723;-51
2024/02/06 10:08:55;;;;;;;3.00;1.80;;;;;;;3.30;100.00;98996.69;109879;1270;22990;-45
2024/02/06 10:12:01;;;;;;;4.00;1.90;;;;;;;3.24;100.00;98989.40;108904;1275;26562;-46
2024/02/06 10:14:41;;;;;;;9.80;2.60;;;;;;;3.16;100.00;98994.16;108814;1276;23034;-51
2024/02/06 10:17:41;;;;;;;6.60;2.70;;;;;;;3.09;100.00;98992.89;108628;1270;22847;-50
2024/02/06 10:20:58;;;;;;;5.90;3.60;;;;;;;3.04;100.00;99000.41;109011;1269;22464;-51
2024/02/06 10:23:47;;;;;;;4.50;3.50;;;;;;;2.99;100.00;98996.05;109107;1270;22527;-47
2024/02/06 10:27:18;;;;;;;7.80;4.40;;;;;;;2.93;100.00;98999.45;109011;1273;23857;-51
2024/02/06 10:30:14;;;;;;;7.30;3.60;;;;;;;2.87;100.00;98997.49;108485;1276;23159;-51
2024/02/06 10:32:50;;;;;;;7.30;3.10;;;;;;;2.84;100.00;98995.05;109496;1275;22753;-51
2024/02/06 10:35:24;;;;;;;5.10;3.00;;;;;;;2.85;100.00;98991.29;109103;1271;412213;-52
2024/02/06 10:38:15;;;;;;;3.50;2.20;;;;;;;2.90;100.00;98987.20;109032;1274;22570;-48
2024/02/06 10:40:44;;;;;;;5.80;2.60;;;;;;;2.93;100.00;98981.37;109323;1270;22595;-45
2024/02/06 10:43:14;;;;;;;5.90;2.90;;;;;;;2.93;100.00;98986.02;110000;1273;22490;-46
2024/02/06 10:45:44;;;;;;;5.70;2.90;;;;;;;2.97;100.00;98990.01;108934;1273;23080;-50
2024/02/06 10:48:15;;;;;;;4.90;2.80;;;;;;;3.01;100.00;98992.64;109902;1272;22546;-50
2024/02/06 10:50:45;;;;;;;5.50;2.80;;;;;;;3.07;100.00;98990.45;109901;1273;23447;-52
2024/02/06 10:53:18;;;;;;;7.10;2.40;;;;;;;3.10;100.00;98987.73;109107;1270;25457;-47
2024/02/06 10:55:50;;;;;;;11.80;5.50;;;;;;;3.11;100.00;98987.55;109193;1274;22311;-51
2024/02/06 10:58:40;;;;;;;5.00;2.80;;;;;;;3.12;100.00;98988.77;109561;1270;22512;-47
2024/02/06 11:01:14;;;;;;;7.30;3.30;;;;;;;3.17;100.00;98983.99;108826;1270;22516;-46
2024/02/06 11:03:50;;;;;;;5.20;2.70;;;;;;;3.22;100.00;98981.97;109050;1272;22970;-52
2024/02/06 11:06:26;;;;;;;7.20;2.60;;;;;;;3.25;100.00;98985.62;110026;1273;23160;-52
2024/02/06 11:08:56;;;;;;;5.40;2.60;;;;;;;3.27;100.00;98984.09;109742;1275;22423;-48
2024/02/06 11:11:24;;;;;;;4.60;2.60;;;;;;;3.28;100.00;98982.36;109735;1270;22506;-52
2024/02/06 11:13:55;;;;;;;6.50;2.80;;;;;;;3.30;100.00;98981.88;109433;1266;23369;-45
2024/02/06 11:16:24;;;;;;;5.60;2.90;;;;;;;3.35;100.00;98981.05;109468;1270;22911;-50
2024/02/06 11:19:11;;;;;;;6.80;3.00;;;;;;;3.40;100.00;98977.46;109333;1273;22529;-46
2024/02/06 11:21:47;;;;;;;5.50;2.70;;;;;;;3.42;100.00;98978.17;109225;1270;22976;-45
2024/02/06 11:24:37;;;;;;;3.70;2.60;;;;;;;3.43;100.00;98969.91;109144;1257;22592;-47
2024/02/06 11:27:43;;;;;;;6.20;3.30;;;;;;;3.45;100.00;98952.16;109835;1272;23049;-47
2024/02/06 11:30:17;;;;;;;4.70;3.00;;;;;;;3.49;100.00;98961.33;109810;1272;22436;-46
2024/02/06 11:33:19;;;;;;;4.90;3.20;;;;;;;3.52;100.00;98953.58;109090;1270;22402;-51
2024/02/06 11:36:09;;;;;;;6.30;3.90;;;;;;;3.56;100.00;98951.90;109397;1271;22473;-54
2024/02/06 11:38:39;;;;;;;9.10;4.20;;;;;;;3.59;100.00;98950.35;109489;1272;23175;-54
2024/02/06 11:41:13;;;;;;;9.20;5.00;;;;;;;3.61;100.00;98947.11;108982;1276;22490;-48
2024/02/06 11:43:43;;;;;;;9.30;5.10;;;;;;;3.67;100.00;98945.77;110011;1277;22916;-47
2024/02/06 11:46:11;;;;;;;8.70;4.30;;;;;;;3.73;100.00;98943.73;109941;1270;22290;-47
2024/02/06 11:48:42;;;;;;;7.60;4.20;;;;;;;3.80;100.00;98939.45;110017;1273;22468;-45
2024/02/06 11:51:22;;;;;;;8.90;4.10;;;;;;;3.88;100.00;98939.52;108934;1270;22651;-49
2024/02/06 11:54:08;;;;;;;13.80;6.50;;;;;;;3.98;100.00;98942.65;109008;1271;22608;-46
2024/02/06 11:56:38;;;;;;;7.00;4.80;;;;;;;4.12;100.00;98941.16;109178;1270;22329;-51
2024/02/06 11:59:11;;;;;;;11.80;5.20;;;;;;;4.24;100.00;98938.45;108825;1270;23013;-47
2024/02/06 12:01:42;;;;;;;8.10;5.10;;;;;;;4.36;100.00;98939.35;108860;1276;22540;-56
2024/02/06 12:04:21;;;;;;;8.60;5.80;;;;;;;4.46;100.00;98936.28;109175;1272;22961;-50
2024/02/06 12:06:49;;;;;;;9.60;6.10;;;;;;;4.53;100.00;98938.72;109949;1272;23329;-52
2024/02/06 12:09:20;;;;;;;11.50;6.50;;;;;;;4.60;100.00;98936.48;109610;1269;22430;-48
2024/02/06 12:11:54;;;;;;;11.00;6.40;;;;;;;4.68;100.00;98932.02;109592;1273;23250;-53
2024/02/06 12:14:28;;;;;;;14.90;6.90;;;;;;;4.79;100.00;98930.84;109496;1275;23341;-55
2024/02/06 12:16:56;;;;;;;16.50;8.50;;;;;;;4.91;100.00;98928.77;109741;1276;23453;-53
2024/02/06 12:19:25;;;;;;;14.90;6.80;;;;;;;5.00;100.00;98928.42;109826;1276;22479;-46
2024/02/06 12:22:03;;;;;;;9.20;6.90;;;;;;;5.11;100.00;98926.19;109968;1275;22551;-47
2024/02/06 12:24:31;;;;;;;11.30;7.70;;;;;;;5.20;100.00;98932.77;109970;1270;22749;-53
2024/02/06 12:27:06;;;;;;;11.80;8.00;;;;;;;5.27;100.00;98930.69;109926;1270;22370;-53
2024/02/06 12:29:41;;;;;;;20.60;9.70;;;;;;;5.37;100.00;98931.71;110018;1275;22776;-47
2024/02/06 12:32:09;;;;;;;15.70;9.40;;;;;;;5.46;100.00;98933.27;109814;1273;23313;-46
2024/02/06 12:34:37;;;;;;;13.50;9.20;;;;;;;5.55;100.00;98935.85;109989;1272;23589;-52
2024/02/06 12:37:05;;;;;;;18.80;9.70;;;;;;;5.63;100.00;98935.48;110003;1271;23294;-46
2024/02/06 12:39:33;;;;;;;12.40;8.00;;;;;;;5.70;100.00;98943.09;110184;1270;23011;-48
2024/02/06 12:42:06;;;;;;;14.10;8.30;;;;;;;5.77;100.00;98944.45;110110;1254;23133;-51
2024/02/06 12:44:34;;;;;;;13.10;6.90;;;;;;;5.82;100.00;98945.48;110170;1273;22262;-55
2024/02/06 12:47:16;;;;;;;13.00;6.90;;;;;;;5.86;100.00;98947.21;110010;1270;22493;-52
2024/02/06 12:49:44;;;;;;;9.90;6.40;;;;;;;5.88;100.00;98946.52;110032;1275;22288;-53
2024/02/06 12:52:17;;;;;;;12.50;7.70;;;;;;;5.89;100.00;98940.44;110067;1278;22293;-47
2024/02/06 12:54:45;;;;;;;;;;;;;;;5.86;100.00;98942.52;110080;1277;23000;-48
2024/02/06 12:57:15;;;;;;;16.70;8.50;;;;;;;5.82;100.00;98941.17;109059;1277;22390;-46
2024/02/06 12:59:47;;;;;;;18.10;7.60;;;;;;;5.77;100.00;98940.82;109793;1277;22363;-47
2024/02/06 13:02:14;;;;;;;13.30;6.80;;;;;;;5.74;100.00;98936.67;109872;1264;23055;-46
2024/02/06 13:04:42;;;;;;;9.50;6.50;;;;;;;5.73;100.00;98939.61;109918;1276;22382;-55
2024/02/06 13:07:21;;;;;;;11.50;9.20;;;;;;;5.75;100.00;98940.48;109876;1277;22946;-48
2024/02/06 13:09:58;;;;;;;11.90;6.40;;;;;;;5.78;100.00;98939.60;109948;1277;22865;-54
2024/02/06 13:12:27;;;;;;;8.70;5.90;;;;;;;5.75;100.00;98939.79;109893;1278;22386;-47
2024/02/06 13:14:54;;;;;;;9.80;5.40;;;;;;;5.68;100.00;98939.28;109835;1272;22317;-46
2024/02/06 13:17:24;;;;;;;11.30;6.90;;;;;;;5.66;100.00;98938.25;109870;1273;22357;-52
2024/02/06 13:20:08;;;;;;;11.60;6.30;;;;;;;5.65;100.00;98938.08;109912;1276;22204;-53
2024/02/06 13:22:38;;;;;;;11.00;6.30;;;;;;;5.67;100.00;98945.16;109896;1277;22596;-52
2024/02/06 13:25:07;;;;;;;16.00;8.10;;;;;;;5.69;100.00;98946.89;109814;1273;22589;-52
2024/02/06 13:27:35;;;;;;;15.70;8.60;;;;;;;5.73;100.00;98945.68;109839;1278;22273;-48
2024/02/06 13:30:03;;;;;;;13.90;7.50;;;;;;;5.79;100.00;98942.73;109871;1278;22295;-47
2024/02/06 13:32:31;;;;;;;29.10;13.60;;;;;;;5.86;100.00;98941.66;109942;1278;22958;-46
2024/02/06 13:34:59;;;;;;;21.10;9.10;;;;;;;5.95;100.00;98940.29;109990;1278;23013;-46
2024/02/06 13:37:26;;;;;;;15.60;8.20;;;;;;;6.04;100.00;98938.02;110162;1278;22518;-48
2024/02/06 13:39:54;;;;;;;10.80;6.80;;;;;;;6.11;100.00;98936.61;109309;1278;22373;-53
2024/02/06 13:42:22;;;;;;;11.30;6.40;;;;;;;6.15;100.00;98934.86;110064;1277;22822;-47
2024/02/06 13:44:49;;;;;;;7.70;5.50;;;;;;;6.20;100.00;98932.77;110059;1278;22213;-53
2024/02/06 13:47:17;;;;;;;8.80;5.30;;;;;;;6.24;100.00;98930.49;110067;1270;22388;-47
2024/02/06 13:49:45;;;;;;;9.90;6.10;;;;;;;6.28;100.00;98930.48;110130;1275;22204;-47
2024/02/06 13:52:13;;;;;;;9.60;5.00;;;;;;;6.31;100.00;98931.50;110148;1276;22224;-54
2024/02/06 13:54:42;;;;;;;9.10;5.10;;;;;;;6.35;100.00;98925.60;110151;1277;23036;-53
2024/02/06 13:57:10;;;;;;;7.50;5.30;;;;;;;6.39;100.00;98929.40;109059;1276;22918;-54
2024/02/06 13:59:38;;;;;;;7.70;5.10;;;;;;;6.43;100.00;98926.42;109855;1275;22439;-53
2024/02/06 14:02:05;;;;;;;12.30;5.90;;;;;;;6.47;100.00;98921.21;110287;1277;22227;-53
2024/02/06 14:04:35;;;;;;;6.60;4.60;;;;;;;6.50;100.00;98926.05;110107;1274;23161;-48
2024/02/06 14:07:03;;;;;;;8.50;5.30;;;;;;;6.53;100.00;98923.24;107624;1276;25268;-47
2024/02/06 14:09:31;;;;;;;9.90;4.60;;;;;;;6.56;100.00;98921.86;108222;1277;25294;-48
2024/02/06 14:11:59;;;;;;;7.70;5.40;;;;;;;6.58;100.00;98921.48;109872;1277;22211;-52
2024/02/06 14:14:29;;;;;;;10.10;5.00;;;;;;;6.61;100.00;98922.33;108623;1277;23912;-56
2024/02/06 14:16:57;;;;;;;8.30;4.20;;;;;;;6.62;100.00;98922.69;106924;1277;22665;-52
2024/02/06 14:19:26;;;;;;;7.20;4.20;;;;;;;6.63;100.00;98924.94;109364;1277;22467;-47
2024/02/06 14:21:54;;;;;;;9.60;4.30;;;;;;;6.63;100.00;98924.41;110093;1277;22513;-53
2024/02/06 14:24:24;;;;;;;6.40;4.00;;;;;;;6.63;100.00;98924.06;110189;1277;22328;-47
2024/02/06 14:26:51;;;;;;;6.90;3.80;;;;;;;6.65;100.00;98915.55;109957;1277;22888;-53
2024/02/06 14:29:19;;;;;;;6.70;3.90;;;;;;;6.69;100.00;98910.17;109195;1276;22766;-48
2024/02/06 14:31:46;;;;;;;5.10;3.50;;;;;;;6.72;100.00;98911.88;107153;1277;23174;-55
2024/02/06 14:34:14;;;;;;;5.30;3.50;;;;;;;6.75;100.00;98913.08;109577;1277;22899;-54
2024/02/06 14:36:42;;;;;;;6.80;3.20;;;;;;;6.77;100.00;98913.56;110276;1276;22261;-47
2024/02/06 14:39:10;;;;;;;6.40;3.10;;;;;;;6.79;100.00;98914.09;110265;1277;22442;-47
2024/02/06 14:41:37;;;;;;;6.40;2.90;;;;;;;6.80;100.00;98914.95;107457;1277;24200;-53
2024/02/06 14:44:05;;;;;;;4.40;3.60;;;;;;;6.81;100.00;98911.66;109968;1277;22551;-53
2024/02/06 14:46:33;;;;;;;7.10;3.60;;;;;;;6.81;100.00;98913.37;108558;1277;22533;-49
2024/02/06 14:49:00;;;;;;;5.40;3.50;;;;;;;6.81;100.00;98911.13;107292;1278;22961;-52
2024/02/06 14:51:29;;;;;;;5.90;3.80;;;;;;;6.80;100.00;98911.30;108986;1276;23006;-47
2024/02/06 14:53:56;;;;;;;8.00;4.80;;;;;;;6.79;100.00;98908.73;110199;1278;22192;-52
2024/02/06 14:56:24;;;;;;;5.90;4.10;;;;;;;6.77;100.00;98907.50;108775;1273;22534;-47
2024/02/06 14:58:51;;;;;;;10.20;5.10;;;;;;;6.76;100.00;98912.02;110005;1278;22282;-53
2024/02/06 15:01:19;;;;;;;6.90;5.10;;;;;;;6.75;100.00;98910.65;110033;1278;22175;-53
2024/02/06 15:03:54;;;;;;;13.30;6.00;;;;;;;6.74;100.00;98909.63;110061;1278;22413;-48
2024/02/06 15:06:22;;;;;;;20.20;11.20;;;;;;;6.72;100.00;98912.39;110079;1278;22282;-53
2024/02/06 15:08:50;;;;;;;22.10;10.90;;;;;;;6.68;100.00;98912.08;109047;1278;22313;-47
2024/02/06 15:11:22;;;;;;;12.40;7.30;;;;;;;6.65;100.00;98912.26;110067;1278;22023;-52
2024/02/06 15:13:49;;;;;;;11.20;5.70;;;;;;;6.63;100.00;98920.42;110156;1278;22118;-53
2024/02/06 15:16:17;;;;;;;12.20;8.10;;;;;;;6.60;100.00;98926.67;108994;1278;22491;-51
2024/02/06 15:18:45;;;;;;;20.10;13.80;;;;;;;6.55;100.00;98929.65;109065;1278;22514;-48
2024/02/06 15:21:13;;;;;;;17.40;11.80;;;;;;;6.52;100.00;98933.14;109897;1277;22426;-48
